MOL Majesty — V7SV4 — position and weather

sailwx.info

Track history (hours):
 
Tides and Currents Weather Stations Pressure Air Temp Water Temp Dewpoint Dewpoint Depression Visibility Wind Speed Wind Dir Waves Ship Positions

MOL Majesty

Last reported at 2017-Dec-16 18:58 UTC. Time now 2017-Dec-16 19:13 UTC.
Position N 09°22' W 079°53'.

Length 302 m; draft 11.5 m.

Type: Ship (hazmat cat C). MMSI: 538003729.

Date/timePositionNaut miles runAvg speedWind from/ knotsBaromVisibWave heightAir tempDewpointWater temp
2017-Dec-16 18:58N 09°22' W 079°53'0 0.0
2017-Dec-16 18:28N 09°22' W 079°53'0 0.0
2017-Dec-16 17:58N 09°22' W 079°53'0 0.0
2017-Dec-16 17:28N 09°22' W 079°53'0 0.0
2017-Dec-16 16:58N 09°22' W 079°53'0 0.0
2017-Dec-16 16:28N 09°22' W 079°53'0 0.0
2017-Dec-16 15:58N 09°22' W 079°53'0 0.0
2017-Dec-16 15:28N 09°22' W 079°53'0 0.0
2017-Dec-16 14:58N 09°22' W 079°53'0 0.0
2017-Dec-16 14:28N 09°22' W 079°53'0 0.0
2017-Dec-16 13:55N 09°22' W 079°53'0 0.0
2017-Dec-16 13:28N 09°22' W 079°53'0 0.0
2017-Dec-16 13:01N 09°22' W 079°53'2 3.1
2017-Dec-16 12:31N 09°24' W 079°54'2 3.9
2017-Dec-16 12:00N 09°25' W 079°54'2 3.3
2017-Dec-16 11:31N 09°27' W 079°53'1 2.1
2017-Dec-16 11:00N 09°28' W 079°52'1 1.8
2017-Dec-16 10:31N 09°29' W 079°52'1 1.6
2017-Dec-16 10:00N 09°28' W 079°52'1 1.7
2017-Dec-16 09:31N 09°28' W 079°52'713.6
2017-Dec-16 09:00N 09°35' W 079°51'815.7
2017-Dec-16 08:31N 09°42' W 079°49'815.5
2017-Dec-16 08:00N 09°49' W 079°45'  
2017-Dec-11 10:50N 36°51' W 075°52'310.4
2017-Dec-11 10:30N 36°54' W 075°55'5 9.9
2017-Dec-11 10:00N 36°57' W 076°00'713.1
2017-Dec-11 09:28N 36°59' W 076°08'714.0
2017-Dec-11 08:56N 36°60' W 076°18'510.6
2017-Dec-11 08:29N 36°56' W 076°20'1 2.6
2017-Dec-11 08:00N 36°55' W 076°20'0 0.0
2017-Dec-11 07:30N 36°55' W 076°20'0 0.0
2017-Dec-11 07:00N 36°55' W 076°20'0 0.0
2017-Dec-11 06:30N 36°55' W 076°20'0 0.0
2017-Dec-11 06:00N 36°55' W 076°20'0 0.0
2017-Dec-11 05:30N 36°55' W 076°20'0 0.0
2017-Dec-11 05:00N 36°55' W 076°20'0 0.0
2017-Dec-11 04:30N 36°55' W 076°20'0 0.0
2017-Dec-11 04:00N 36°55' W 076°20'0 0.0
2017-Dec-11 03:30N 36°55' W 076°20'0 0.0
2017-Dec-11 03:00N 36°55' W 076°20'0 0.0
2017-Dec-11 02:30N 36°55' W 076°20'0 0.0
2017-Dec-11 02:00N 36°55' W 076°20'0 0.0
2017-Dec-11 01:30N 36°55' W 076°20'0 0.0
2017-Dec-11 01:00N 36°55' W 076°20'0 0.0
2017-Dec-11 00:30N 36°55' W 076°20'0 0.0
2017-Dec-11 00:00N 36°55' W 076°20'0 0.0
2017-Dec-10 23:30N 36°55' W 076°20'0 0.0
2017-Dec-10 23:00N 36°55' W 076°20'0 0.1
2017-Dec-10 22:30N 36°55' W 076°20'0 0.1
2017-Dec-10 22:00N 36°55' W 076°20'0 0.0
2017-Dec-10 21:30N 36°55' W 076°20'0 0.0
2017-Dec-10 20:57N 36°55' W 076°20'0 0.0
2017-Dec-10 20:30N 36°55' W 076°20'0 0.0
2017-Dec-10 20:00N 36°55' W 076°20'0 0.0
2017-Dec-10 19:30N 36°55' W 076°20'0 0.0
2017-Dec-10 19:00N 36°55' W 076°20'0 0.0
2017-Dec-10 18:30N 36°55' W 076°20'0 0.0
2017-Dec-10 18:00N 36°55' W 076°20'0 0.0
2017-Dec-10 17:30N 36°55' W 076°20'0 0.0
2017-Dec-10 17:00N 36°55' W 076°20'0 0.0
2017-Dec-10 16:30N 36°55' W 076°20'0 0.0
2017-Dec-10 16:00N 36°55' W 076°20'0 0.0
2017-Dec-10 15:30N 36°55' W 076°20'0 0.0
2017-Dec-10 15:00N 36°55' W 076°20'0 0.0
2017-Dec-10 14:30N 36°55' W 076°20'0 0.0
2017-Dec-10 14:00N 36°55' W 076°20'0 0.0
2017-Dec-10 13:30N 36°55' W 076°20'0 0.0
2017-Dec-10 13:00N 36°55' W 076°20'0 0.0
2017-Dec-10 12:30N 36°55' W 076°20'0 0.0
2017-Dec-10 12:00N 36°55' W 076°20'0 0.0
2017-Dec-10 11:30N 36°55' W 076°20'0 0.0
2017-Dec-10 11:00N 36°55' W 076°20'0 0.0
2017-Dec-10 10:30N 36°55' W 076°20'1 1.4
2017-Dec-10 10:01N 36°55' W 076°20'3 5.3
2017-Dec-10 09:30N 36°58' W 076°20'611.0
2017-Dec-10 08:59N 37°00' W 076°14'714.5
2017-Dec-10 08:31N 36°58' W 076°06'612.6
2017-Dec-10 08:00N 36°57' W 075°58'4 8.0
2017-Dec-10 07:30N 36°54' W 075°54'  
Track history (hours):
 
Tides and Currents Weather Stations Pressure Air Temp Water Temp Dewpoint Dewpoint Depression Visibility Wind Speed Wind Dir Waves Ship Positions

MOL Majesty

Last reported at 2017-Dec-16 18:58 UTC. Time now 2017-Dec-16 19:13 UTC.
Position N 09°22' W 079°53'.

Length 302 m; draft 11.5 m.

Type: Ship (hazmat cat C). MMSI: 538003729.

Date/timePositionNaut miles runAvg speedWind from/ knotsBaromVisibWave heightAir tempDewpointWater temp
2017-Dec-16 18:58N 09°22' W 079°53'0 0.0
2017-Dec-16 18:28N 09°22' W 079°53'0 0.0
2017-Dec-16 17:58N 09°22' W 079°53'0 0.0
2017-Dec-16 17:28N 09°22' W 079°53'0 0.0
2017-Dec-16 16:58N 09°22' W 079°53'0 0.0
2017-Dec-16 16:28N 09°22' W 079°53'0 0.0
2017-Dec-16 15:58N 09°22' W 079°53'0 0.0
2017-Dec-16 15:28N 09°22' W 079°53'0 0.0
2017-Dec-16 14:58N 09°22' W 079°53'0 0.0
2017-Dec-16 14:28N 09°22' W 079°53'0 0.0
2017-Dec-16 13:55N 09°22' W 079°53'0 0.0
2017-Dec-16 13:28N 09°22' W 079°53'0 0.0
2017-Dec-16 13:01N 09°22' W 079°53'2 3.1
2017-Dec-16 12:31N 09°24' W 079°54'2 3.9
2017-Dec-16 12:00N 09°25' W 079°54'2 3.3
2017-Dec-16 11:31N 09°27' W 079°53'1 2.1
2017-Dec-16 11:00N 09°28' W 079°52'1 1.8
2017-Dec-16 10:31N 09°29' W 079°52'1 1.6
2017-Dec-16 10:00N 09°28' W 079°52'1 1.7
2017-Dec-16 09:31N 09°28' W 079°52'713.6
2017-Dec-16 09:00N 09°35' W 079°51'815.7
2017-Dec-16 08:31N 09°42' W 079°49'815.5
2017-Dec-16 08:00N 09°49' W 079°45'  
2017-Dec-11 10:50N 36°51' W 075°52'310.4
2017-Dec-11 10:30N 36°54' W 075°55'5 9.9
2017-Dec-11 10:00N 36°57' W 076°00'713.1
2017-Dec-11 09:28N 36°59' W 076°08'714.0
2017-Dec-11 08:56N 36°60' W 076°18'510.6
2017-Dec-11 08:29N 36°56' W 076°20'1 2.6
2017-Dec-11 08:00N 36°55' W 076°20'0 0.0
2017-Dec-11 07:30N 36°55' W 076°20'0 0.0
2017-Dec-11 07:00N 36°55' W 076°20'0 0.0
2017-Dec-11 06:30N 36°55' W 076°20'0 0.0
2017-Dec-11 06:00N 36°55' W 076°20'0 0.0
2017-Dec-11 05:30N 36°55' W 076°20'0 0.0
2017-Dec-11 05:00N 36°55' W 076°20'0 0.0
2017-Dec-11 04:30N 36°55' W 076°20'0 0.0
2017-Dec-11 04:00N 36°55' W 076°20'0 0.0
2017-Dec-11 03:30N 36°55' W 076°20'0 0.0
2017-Dec-11 03:00N 36°55' W 076°20'0 0.0
2017-Dec-11 02:30N 36°55' W 076°20'0 0.0
2017-Dec-11 02:00N 36°55' W 076°20'0 0.0
2017-Dec-11 01:30N 36°55' W 076°20'0 0.0
2017-Dec-11 01:00N 36°55' W 076°20'0 0.0
2017-Dec-11 00:30N 36°55' W 076°20'0 0.0
2017-Dec-11 00:00N 36°55' W 076°20'0 0.0
2017-Dec-10 23:30N 36°55' W 076°20'0 0.0
2017-Dec-10 23:00N 36°55' W 076°20'0 0.1
2017-Dec-10 22:30N 36°55' W 076°20'0 0.1
2017-Dec-10 22:00N 36°55' W 076°20'0 0.0
2017-Dec-10 21:30N 36°55' W 076°20'0 0.0
2017-Dec-10 20:57N 36°55' W 076°20'0 0.0
2017-Dec-10 20:30N 36°55' W 076°20'0 0.0
2017-Dec-10 20:00N 36°55' W 076°20'0 0.0
2017-Dec-10 19:30N 36°55' W 076°20'0 0.0
2017-Dec-10 19:00N 36°55' W 076°20'0 0.0
2017-Dec-10 18:30N 36°55' W 076°20'0 0.0
2017-Dec-10 18:00N 36°55' W 076°20'0 0.0
2017-Dec-10 17:30N 36°55' W 076°20'0 0.0
2017-Dec-10 17:00N 36°55' W 076°20'0 0.0
2017-Dec-10 16:30N 36°55' W 076°20'0 0.0
2017-Dec-10 16:00N 36°55' W 076°20'0 0.0
2017-Dec-10 15:30N 36°55' W 076°20'0 0.0
2017-Dec-10 15:00N 36°55' W 076°20'0 0.0
2017-Dec-10 14:30N 36°55' W 076°20'0 0.0
2017-Dec-10 14:00N 36°55' W 076°20'0 0.0
2017-Dec-10 13:30N 36°55' W 076°20'0 0.0
2017-Dec-10 13:00N 36°55' W 076°20'0 0.0
2017-Dec-10 12:30N 36°55' W 076°20'0 0.0
2017-Dec-10 12:00N 36°55' W 076°20'0 0.0
2017-Dec-10 11:30N 36°55' W 076°20'0 0.0
2017-Dec-10 11:00N 36°55' W 076°20'0 0.0
2017-Dec-10 10:30N 36°55' W 076°20'1 1.4
2017-Dec-10 10:01N 36°55' W 076°20'3 5.3
2017-Dec-10 09:30N 36°58' W 076°20'611.0
2017-Dec-10 08:59N 37°00' W 076°14'714.5
2017-Dec-10 08:31N 36°58' W 076°06'612.6
2017-Dec-10 08:00N 36°57' W 075°58'4 8.0
2017-Dec-10 07:30N 36°54' W 075°54'  

Dump ship's entire track history